createdAt,value
2022-09-23T00:01:11.718Z,100.00
2022-09-23T00:03:47.650Z,100.00
2022-09-23T00:06:23.491Z,100.00
2022-09-23T00:08:52.275Z,100.00
2022-09-23T00:11:22.760Z,100.00
2022-09-23T00:13:52.364Z,100.00
2022-09-23T00:16:26.087Z,100.00
2022-09-23T00:18:53.235Z,100.00
2022-09-23T00:21:22.026Z,100.00
2022-09-23T00:23:50.424Z,100.00
2022-09-23T00:26:20.611Z,100.00
2022-09-23T00:28:49.005Z,100.00
2022-09-23T00:31:23.517Z,100.00
2022-09-23T00:33:59.937Z,100.00
2022-09-23T00:36:28.860Z,100.00
2022-09-23T00:38:56.115Z,100.00
2022-09-23T00:41:23.857Z,100.00
2022-09-23T00:44:02.015Z,100.00
2022-09-23T00:46:35.687Z,100.00
2022-09-23T00:49:17.957Z,100.00
2022-09-23T00:51:54.358Z,100.00
2022-09-23T00:54:24.696Z,100.00
2022-09-23T00:56:52.012Z,100.00
2022-09-23T00:59:21.041Z,100.00
2022-09-23T01:01:50.239Z,100.00
2022-09-23T01:04:17.349Z,100.00
2022-09-23T01:06:44.649Z,100.00
2022-09-23T01:09:11.718Z,100.00
2022-09-23T01:12:04.535Z,100.00
2022-09-23T01:14:48.737Z,100.00
2022-09-23T01:17:36.879Z,100.00
2022-09-23T01:20:07.110Z,100.00
2022-09-23T01:22:49.859Z,100.00
2022-09-23T01:25:16.947Z,100.00
2022-09-23T01:27:58.329Z,100.00
2022-09-23T01:30:31.498Z,100.00
2022-09-23T01:33:20.025Z,100.00
2022-09-23T01:36:23.984Z,100.00
2022-09-23T01:39:13.487Z,100.00
2022-09-23T01:42:09.954Z,100.00
2022-09-23T01:44:43.225Z,100.00
2022-09-23T01:47:23.316Z,100.00
2022-09-23T01:49:59.093Z,100.00
2022-09-23T01:52:44.960Z,100.00
2022-09-23T01:55:38.523Z,100.00
2022-09-23T01:58:12.787Z,100.00
2022-09-23T02:00:45.584Z,100.00
2022-09-23T02:03:28.432Z,100.00
2022-09-23T02:06:10.180Z,100.00
2022-09-23T02:08:58.535Z,100.00
2022-09-23T02:11:25.739Z,100.00
2022-09-23T02:14:02.943Z,100.00
2022-09-23T02:16:36.264Z,100.00
2022-09-23T02:19:23.605Z,100.00
2022-09-23T02:21:59.067Z,100.00
2022-09-23T02:24:32.276Z,100.00
2022-09-23T02:27:12.252Z,100.00
2022-09-23T02:29:57.460Z,100.00
2022-09-23T02:32:53.915Z,100.00
2022-09-23T02:35:44.492Z,100.00
2022-09-23T02:38:37.714Z,100.00
2022-09-23T02:41:11.110Z,100.00
2022-09-23T02:43:57.926Z,100.00
2022-09-23T02:46:25.201Z,100.00
2022-09-23T02:48:57.476Z,100.00
2022-09-23T02:51:25.971Z,100.00
2022-09-23T02:53:56.541Z,100.00
2022-09-23T02:56:23.834Z,100.00
2022-09-23T02:58:54.520Z,100.00
2022-09-23T03:01:39.871Z,100.00
2022-09-23T03:04:18.961Z,100.00
2022-09-23T03:07:08.191Z,100.00
2022-09-23T03:10:07.430Z,100.00
2022-09-23T03:12:36.367Z,100.00
2022-09-23T03:15:57.438Z,100.00
2022-09-23T03:18:39.975Z,100.00
2022-09-23T03:21:28.483Z,100.00
2022-09-23T03:24:01.113Z,100.00
2022-09-23T03:26:32.408Z,100.00
2022-09-23T03:29:04.259Z,100.00
2022-09-23T03:31:33.756Z,100.00
2022-09-23T03:34:06.049Z,100.00
2022-09-23T03:36:54.051Z,100.00
2022-09-23T03:39:33.444Z,100.00
2022-09-23T03:42:07.017Z,100.00
2022-09-23T03:44:39.275Z,100.00
2022-09-23T03:47:07.104Z,100.00
2022-09-23T03:49:39.796Z,100.00
2022-09-23T03:52:07.629Z,100.00
2022-09-23T03:54:34.906Z,100.00
2022-09-23T03:57:03.271Z,100.00
2022-09-23T03:59:31.274Z,100.00
2022-09-23T04:02:01.024Z,100.00
2022-09-23T04:04:29.375Z,100.00
2022-09-23T04:06:57.669Z,100.00
2022-09-23T04:09:24.904Z,100.00
2022-09-23T04:11:53.717Z,100.00
2022-09-23T04:14:23.175Z,100.00
2022-09-23T04:16:51.328Z,100.00
2022-09-23T04:19:19.765Z,100.00
2022-09-23T04:21:47.851Z,100.00
2022-09-23T04:24:16.714Z,100.00
2022-09-23T04:26:44.408Z,100.00
2022-09-23T04:29:12.358Z,100.00
2022-09-23T04:31:39.987Z,100.00
2022-09-23T04:34:07.932Z,100.00
2022-09-23T04:36:35.545Z,100.00
2022-09-23T04:39:03.476Z,100.00
2022-09-23T04:41:30.877Z,100.00
2022-09-23T04:43:58.114Z,100.00
2022-09-23T04:46:26.248Z,100.00
2022-09-23T04:48:53.765Z,100.00
2022-09-23T04:51:23.018Z,100.00
2022-09-23T04:53:52.088Z,100.00
2022-09-23T04:56:22.559Z,100.00
2022-09-23T04:58:51.159Z,100.00
2022-09-23T05:01:25.050Z,100.00
2022-09-23T05:03:54.543Z,100.00
2022-09-23T05:06:22.501Z,100.00
2022-09-23T05:08:54.948Z,100.00
2022-09-23T05:11:22.842Z,100.00
2022-09-23T05:13:51.719Z,100.00
2022-09-23T05:16:19.913Z,100.00
2022-09-23T05:18:48.613Z,100.00
2022-09-23T05:21:19.908Z,100.00
2022-09-23T05:23:55.566Z,100.00
2022-09-23T05:26:25.657Z,100.00
2022-09-23T05:28:54.260Z,100.00
2022-09-23T05:31:26.775Z,100.00
2022-09-23T05:33:59.727Z,100.00
2022-09-23T05:36:28.823Z,100.00
2022-09-23T05:38:59.527Z,100.00
2022-09-23T05:41:27.630Z,100.00
2022-09-23T05:43:56.197Z,100.00
2022-09-23T05:46:28.825Z,100.00
2022-09-23T05:49:02.186Z,100.00
2022-09-23T05:51:31.659Z,100.00
2022-09-23T05:54:00.400Z,100.00
2022-09-23T05:56:28.750Z,100.00
2022-09-23T05:58:58.608Z,100.00
2022-09-23T06:01:28.537Z,100.00
2022-09-23T06:03:57.535Z,100.00
2022-09-23T06:06:37.026Z,100.00
2022-09-23T06:09:05.622Z,100.00
2022-09-23T06:11:34.576Z,100.00
2022-09-23T06:14:02.673Z,100.00
2022-09-23T06:16:32.661Z,100.00
2022-09-23T06:19:06.907Z,100.00
2022-09-23T06:21:39.240Z,100.00
2022-09-23T06:24:08.150Z,100.00
2022-09-23T06:26:38.024Z,100.00
2022-09-23T06:29:12.245Z,100.00
2022-09-23T06:31:41.340Z,100.00
2022-09-23T06:34:14.424Z,100.00
2022-09-23T06:36:45.110Z,100.00
2022-09-23T06:39:16.712Z,100.00
2022-09-23T06:41:45.577Z,100.00
2022-09-23T06:44:14.594Z,100.00
2022-09-23T06:46:41.935Z,100.00
2022-09-23T06:49:09.500Z,100.00
2022-09-23T06:51:37.512Z,100.00
2022-09-23T06:54:05.044Z,100.00
2022-09-23T06:56:36.321Z,100.00
2022-09-23T06:59:07.219Z,100.00
2022-09-23T07:01:35.064Z,100.00
2022-09-23T07:04:02.528Z,100.00
2022-09-23T07:06:29.625Z,100.00
2022-09-23T07:08:59.456Z,100.00
2022-09-23T07:11:27.207Z,100.00
2022-09-23T07:13:54.345Z,100.00
2022-09-23T07:16:21.596Z,100.00
2022-09-23T07:18:48.873Z,100.00
2022-09-23T07:21:18.627Z,100.00
2022-09-23T07:23:47.900Z,100.00
2022-09-23T07:26:16.709Z,100.00
2022-09-23T07:28:44.053Z,100.00
2022-09-23T07:31:14.040Z,100.00
2022-09-23T07:33:44.613Z,100.00
2022-09-23T07:36:14.950Z,100.00
2022-09-23T07:38:45.456Z,100.00
2022-09-23T07:41:15.876Z,100.00
2022-09-23T07:43:44.347Z,100.00
2022-09-23T07:46:15.273Z,100.00
2022-09-23T07:48:43.591Z,100.00
2022-09-23T07:51:14.106Z,100.00
2022-09-23T07:53:41.273Z,100.00
2022-09-23T07:56:08.366Z,100.00
2022-09-23T07:58:35.673Z,100.00
2022-09-23T08:01:07.904Z,100.00
2022-09-23T08:03:35.395Z,100.00
2022-09-23T08:06:13.522Z,100.00
2022-09-23T08:08:45.017Z,100.00
2022-09-23T08:11:14.439Z,100.00
2022-09-23T08:13:42.020Z,100.00
2022-09-23T08:16:10.272Z,100.00
2022-09-23T08:18:37.553Z,100.00
2022-09-23T08:21:04.790Z,100.00
2022-09-23T08:23:33.764Z,100.00
2022-09-23T08:26:03.495Z,100.00
2022-09-23T08:28:33.959Z,100.00
2022-09-23T08:31:01.430Z,100.00
2022-09-23T08:33:28.728Z,100.00
2022-09-23T08:36:01.042Z,100.00
2022-09-23T08:38:29.279Z,100.00
2022-09-23T08:41:13.788Z,100.00
2022-09-23T08:43:48.218Z,100.00
2022-09-23T08:46:22.325Z,100.00
2022-09-23T08:48:49.903Z,100.00
2022-09-23T08:51:29.564Z,100.00
2022-09-23T08:53:58.503Z,100.00
2022-09-23T08:56:26.098Z,100.00
2022-09-23T08:59:14.986Z,100.00
2022-09-23T09:01:46.383Z,100.00
2022-09-23T09:04:19.599Z,100.00
2022-09-23T09:10:16.889Z,100.00
2022-09-23T09:13:00.541Z,100.00
2022-09-23T09:15:29.210Z,100.00
2022-09-23T09:18:02.601Z,100.00
2022-09-23T09:20:57.452Z,100.00
2022-09-23T09:23:32.340Z,100.00
2022-09-23T09:26:01.846Z,100.00
2022-09-23T09:28:34.176Z,100.00
2022-09-23T09:31:02.969Z,100.00
2022-09-23T09:34:03.924Z,100.00
2022-09-23T09:36:53.352Z,100.00
2022-09-23T09:39:24.165Z,100.00
2022-09-23T09:41:57.816Z,100.00
2022-09-23T09:44:48.461Z,100.00
2022-09-23T09:47:47.062Z,100.00
2022-09-23T09:50:22.310Z,100.00
2022-09-23T09:52:49.655Z,100.00
2022-09-23T09:55:29.311Z,100.00
2022-09-23T09:58:04.305Z,100.00
2022-09-23T10:00:31.415Z,100.00
2022-09-23T10:03:03.268Z,100.00
2022-09-23T10:05:47.566Z,100.00
2022-09-23T10:08:35.142Z,100.00
2022-09-23T10:11:13.239Z,100.00
2022-09-23T10:13:40.510Z,100.00
2022-09-23T10:16:08.368Z,100.00
2022-09-23T10:18:48.503Z,100.00
2022-09-23T10:21:23.113Z,100.00
2022-09-23T10:23:58.378Z,100.00
2022-09-23T10:26:34.678Z,100.00
2022-09-23T10:29:21.007Z,100.00
2022-09-23T10:31:48.275Z,100.00
2022-09-23T10:34:28.147Z,100.00
2022-09-23T10:37:17.253Z,100.00
2022-09-23T10:40:03.205Z,100.00
2022-09-23T10:43:16.777Z,100.00
2022-09-23T10:46:08.037Z,100.00
2022-09-23T10:49:10.255Z,100.00
2022-09-23T10:52:09.801Z,100.00
2022-09-23T10:55:00.255Z,100.00
2022-09-23T10:57:49.668Z,100.00
2022-09-23T11:00:28.613Z,100.00
2022-09-23T11:03:21.122Z,100.00
2022-09-23T11:06:07.031Z,100.00
2022-09-23T11:09:09.006Z,100.00
2022-09-23T11:11:55.845Z,100.00
2022-09-23T11:14:54.497Z,100.00
2022-09-23T11:17:35.626Z,100.00
2022-09-23T11:20:09.789Z,100.00
2022-09-23T11:22:59.782Z,100.00
2022-09-23T11:25:32.451Z,100.00
2022-09-23T11:28:20.733Z,100.00
2022-09-23T11:31:02.083Z,100.00
2022-09-23T11:33:56.211Z,100.00
2022-09-23T11:36:30.722Z,100.00
2022-09-23T11:39:01.738Z,100.00
2022-09-23T11:41:37.498Z,100.00
2022-09-23T11:44:33.032Z,100.00
2022-09-23T11:47:21.046Z,100.00
2022-09-23T11:49:56.421Z,100.00
2022-09-23T11:52:40.178Z,100.00
2022-09-23T11:55:22.900Z,100.00
2022-09-23T11:58:03.543Z,100.00
2022-09-23T12:00:49.648Z,100.00
2022-09-23T12:03:47.366Z,98.12
2022-09-23T12:06:27.096Z,98.40
2022-09-23T12:08:58.069Z,95.63
2022-09-23T12:11:59.326Z,92.25
2022-09-23T12:14:38.859Z,91.86
2022-09-23T12:17:24.773Z,91.99
2022-09-23T12:19:51.992Z,92.70
2022-09-23T12:22:40.575Z,93.49
2022-09-23T12:25:36.303Z,93.09
2022-09-23T12:28:18.621Z,91.42
2022-09-23T12:30:47.698Z,91.68
2022-09-23T12:33:27.921Z,92.33
2022-09-23T12:36:03.220Z,92.69
2022-09-23T12:38:36.628Z,94.08
2022-09-23T12:41:25.637Z,90.50
2022-09-23T12:44:19.100Z,90.56
2022-09-23T12:46:46.638Z,91.37
2022-09-23T12:49:28.431Z,90.95
2022-09-23T12:52:14.205Z,91.84
2022-09-23T12:54:44.884Z,92.18
2022-09-23T12:57:15.021Z,92.08
2022-09-23T13:00:00.546Z,91.64
2022-09-23T13:02:33.390Z,92.37
2022-09-23T13:05:40.726Z,92.99
2022-09-23T13:08:18.763Z,91.48
2022-09-23T13:10:58.766Z,89.33
2022-09-23T13:13:29.893Z,87.77
2022-09-23T13:16:21.889Z,84.75
2022-09-23T13:18:56.616Z,83.87
2022-09-23T13:21:46.033Z,83.89
2022-09-23T13:24:13.080Z,81.78
2022-09-23T13:26:50.161Z,80.40
2022-09-23T13:29:33.351Z,80.75
2022-09-23T13:32:03.093Z,76.92
2022-09-23T13:34:34.952Z,78.96
2022-09-23T13:37:22.389Z,75.71
2022-09-23T13:39:50.515Z,76.38
2022-09-23T13:42:29.943Z,77.89
2022-09-23T13:45:00.623Z,77.46
2022-09-23T13:47:30.515Z,76.00
2022-09-23T13:49:58.046Z,77.92
2022-09-23T13:52:31.927Z,77.85
2022-09-23T13:54:59.296Z,78.41
2022-09-23T13:57:32.167Z,78.50
2022-09-23T14:00:21.249Z,79.20
2022-09-23T14:02:48.380Z,74.47
2022-09-23T14:05:23.957Z,77.44
2022-09-23T14:07:53.160Z,75.90
2022-09-23T14:10:25.116Z,76.10
2022-09-23T14:12:54.624Z,75.30
2022-09-23T14:15:23.057Z,74.07
2022-09-23T14:17:53.891Z,75.50
2022-09-23T14:20:23.447Z,77.72
2022-09-23T14:23:07.221Z,76.60
2022-09-23T14:25:34.818Z,77.21
2022-09-23T14:28:02.455Z,77.65
2022-09-23T14:30:30.222Z,77.41
2022-09-23T14:33:00.395Z,75.52
2022-09-23T14:35:40.607Z,75.27
2022-09-23T14:38:26.613Z,75.47
2022-09-23T14:41:15.743Z,74.16
2022-09-23T14:44:00.693Z,75.40
2022-09-23T14:46:30.881Z,74.82
2022-09-23T14:49:17.880Z,72.12
2022-09-23T14:51:57.873Z,73.38
2022-09-23T14:54:35.957Z,71.88
2022-09-23T14:57:22.960Z,71.62
2022-09-23T14:59:59.420Z,72.30
2022-09-23T15:02:31.612Z,70.46
2022-09-23T15:05:21.355Z,68.19
2022-09-23T15:07:51.833Z,69.21
2022-09-23T15:10:37.719Z,69.51
2022-09-23T15:13:09.198Z,70.03
2022-09-23T15:15:36.660Z,71.07
2022-09-23T15:18:06.887Z,70.94
2022-09-23T15:20:35.042Z,70.68
2022-09-23T15:23:02.228Z,68.44
2022-09-23T15:25:35.759Z,65.05
2022-09-23T15:28:09.000Z,62.13
2022-09-23T15:30:37.053Z,61.01
2022-09-23T15:33:04.983Z,61.56
2022-09-23T15:35:32.963Z,61.19
2022-09-23T15:38:03.119Z,61.82
2022-09-23T15:40:36.135Z,62.61
2022-09-23T15:43:24.408Z,62.50
2022-09-23T15:45:54.836Z,63.28
2022-09-23T15:48:32.711Z,64.36
2022-09-23T15:51:05.094Z,65.16
2022-09-23T15:53:32.223Z,66.87
2022-09-23T15:55:59.397Z,67.43
2022-09-23T15:58:27.885Z,67.13
2022-09-23T16:00:57.270Z,67.78
2022-09-23T16:03:28.883Z,68.87
2022-09-23T16:06:01.377Z,69.46
2022-09-23T16:08:30.088Z,69.81
2022-09-23T16:10:57.172Z,69.91
2022-09-23T16:13:24.274Z,70.36
2022-09-23T16:15:51.531Z,71.12
2022-09-23T16:18:18.694Z,72.02
2022-09-23T16:20:46.553Z,72.53
2022-09-23T16:23:38.920Z,72.30
2022-09-23T16:26:27.043Z,72.62
2022-09-23T16:28:56.316Z,73.62
2022-09-23T16:31:29.927Z,73.66
2022-09-23T16:33:58.014Z,74.38
2022-09-23T16:36:33.699Z,74.64
2022-09-23T16:39:04.547Z,74.41
2022-09-23T16:41:32.211Z,73.39
2022-09-23T16:44:04.759Z,72.93
2022-09-23T16:46:32.565Z,73.77
2022-09-23T16:49:00.567Z,74.24
2022-09-23T16:51:39.070Z,74.10
2022-09-23T16:54:13.433Z,73.96
2022-09-23T16:56:46.605Z,74.86
2022-09-23T16:59:14.592Z,75.06
2022-09-23T17:02:00.853Z,74.20
2022-09-23T17:04:28.438Z,75.81
2022-09-23T17:06:56.840Z,77.23
2022-09-23T17:09:28.709Z,76.61
2022-09-23T17:12:01.389Z,77.02
2022-09-23T17:14:31.640Z,77.14
2022-09-23T17:16:59.299Z,76.58
2022-09-23T17:19:26.580Z,78.15
2022-09-23T17:21:54.562Z,79.11
2022-09-23T17:24:21.775Z,79.39
2022-09-23T17:26:52.837Z,80.65
2022-09-23T17:29:21.722Z,79.85
2022-09-23T17:31:49.200Z,79.41
2022-09-23T17:34:18.986Z,79.25
2022-09-23T17:36:49.780Z,79.52
2022-09-23T17:39:17.875Z,80.57
2022-09-23T17:41:45.632Z,81.36
2022-09-23T17:44:13.151Z,82.48
2022-09-23T17:46:40.269Z,83.36
2022-09-23T17:49:08.628Z,82.52
2022-09-23T17:51:35.839Z,82.18
2022-09-23T17:54:02.922Z,82.05
2022-09-23T17:56:31.000Z,82.96
2022-09-23T17:59:02.127Z,83.95
2022-09-23T18:01:30.034Z,83.71
2022-09-23T18:03:59.816Z,83.80
2022-09-23T18:06:29.477Z,84.64
2022-09-23T18:08:56.763Z,84.90
2022-09-23T18:11:26.215Z,85.09
2022-09-23T18:13:55.818Z,85.51
2022-09-23T18:16:29.409Z,85.95
2022-09-23T18:19:01.918Z,87.06
2022-09-23T18:21:37.523Z,88.40
2022-09-23T18:24:34.278Z,89.50
2022-09-23T18:26:56.555Z,91.03
2022-09-23T18:29:24.825Z,92.23
2022-09-23T18:31:54.413Z,93.24
2022-09-23T18:34:22.713Z,93.30
2022-09-23T18:36:50.965Z,94.55
2022-09-23T18:39:19.556Z,95.73
2022-09-23T18:41:49.345Z,96.65
2022-09-23T18:44:17.599Z,98.75
2022-09-23T18:46:46.495Z,100.00
2022-09-23T18:49:32.706Z,100.00
2022-09-23T18:52:04.295Z,100.00
2022-09-23T18:54:32.616Z,100.00
2022-09-23T18:57:00.913Z,100.00
2022-09-23T18:59:33.581Z,100.00
2022-09-23T19:02:02.098Z,100.00
2022-09-23T19:04:30.224Z,100.00
2022-09-23T19:06:59.443Z,100.00
2022-09-23T19:09:28.235Z,100.00
2022-09-23T19:11:56.990Z,100.00
2022-09-23T19:14:24.344Z,100.00
2022-09-23T19:16:51.430Z,100.00
2022-09-23T19:19:19.296Z,100.00
2022-09-23T19:21:47.152Z,100.00
2022-09-23T19:24:20.375Z,100.00
2022-09-23T19:26:48.887Z,100.00
2022-09-23T19:29:22.197Z,100.00
2022-09-23T19:31:50.080Z,100.00
2022-09-23T19:34:18.382Z,100.00
2022-09-23T19:36:47.918Z,100.00
2022-09-23T19:39:21.291Z,100.00
2022-09-23T19:41:49.159Z,100.00
2022-09-23T19:44:16.782Z,100.00
2022-09-23T19:46:45.910Z,100.00
2022-09-23T19:49:13.567Z,100.00
2022-09-23T19:51:41.553Z,100.00
2022-09-23T19:54:09.400Z,100.00
2022-09-23T19:56:38.865Z,100.00
2022-09-23T19:59:09.484Z,100.00
2022-09-23T20:01:37.551Z,100.00
2022-09-23T20:04:10.303Z,100.00
2022-09-23T20:06:41.928Z,100.00
2022-09-23T20:09:10.509Z,100.00
2022-09-23T20:11:38.944Z,100.00
2022-09-23T20:14:07.047Z,100.00
2022-09-23T20:16:37.421Z,100.00
2022-09-23T20:19:07.499Z,100.00
2022-09-23T20:21:35.616Z,100.00
2022-09-23T20:24:08.037Z,100.00
2022-09-23T20:26:54.244Z,100.00
2022-09-23T20:29:21.669Z,100.00
2022-09-23T20:31:49.712Z,100.00
2022-09-23T20:34:18.782Z,100.00
2022-09-23T20:36:45.916Z,100.00
2022-09-23T20:39:13.442Z,100.00
2022-09-23T20:41:40.795Z,100.00
2022-09-23T20:44:12.799Z,100.00
2022-09-23T20:46:46.982Z,100.00
2022-09-23T20:49:16.255Z,100.00
2022-09-23T20:51:43.878Z,100.00
2022-09-23T20:54:12.375Z,100.00
2022-09-23T20:56:40.012Z,100.00
2022-09-23T20:59:07.099Z,100.00
2022-09-23T21:01:36.655Z,100.00
2022-09-23T21:04:06.284Z,100.00
2022-09-23T21:06:37.627Z,100.00
2022-09-23T21:09:06.527Z,100.00
2022-09-23T21:11:34.059Z,100.00
2022-09-23T21:14:01.781Z,100.00
2022-09-23T21:16:29.976Z,100.00
2022-09-23T21:18:59.010Z,100.00
2022-09-23T21:21:26.825Z,100.00
2022-09-23T21:23:54.005Z,100.00
2022-09-23T21:26:26.408Z,100.00
2022-09-23T21:28:59.382Z,100.00
2022-09-23T21:31:33.848Z,100.00
2022-09-23T21:34:09.615Z,100.00
2022-09-23T21:36:39.049Z,100.00
2022-09-23T21:39:07.129Z,100.00
2022-09-23T21:41:34.793Z,100.00
2022-09-23T21:44:04.830Z,100.00
2022-09-23T21:46:34.006Z,100.00
2022-09-23T21:49:03.560Z,100.00
2022-09-23T21:51:40.883Z,100.00
2022-09-23T21:54:16.491Z,100.00
2022-09-23T21:56:44.879Z,100.00
2022-09-23T21:59:12.492Z,100.00
2022-09-23T22:01:44.923Z,100.00
2022-09-23T22:04:19.081Z,100.00
2022-09-23T22:06:46.736Z,100.00
2022-09-23T22:09:17.383Z,100.00
2022-09-23T22:12:03.344Z,100.00
2022-09-23T22:14:33.749Z,100.00
2022-09-23T22:17:04.260Z,100.00
2022-09-23T22:19:44.198Z,100.00
2022-09-23T22:22:17.773Z,100.00
2022-09-23T22:24:47.047Z,100.00
2022-09-23T22:27:16.745Z,100.00
2022-09-23T22:30:04.613Z,100.00
2022-09-23T22:32:40.862Z,100.00
2022-09-23T22:35:13.017Z,100.00
2022-09-23T22:37:40.156Z,100.00
2022-09-23T22:40:10.755Z,100.00
2022-09-23T22:42:38.200Z,100.00
2022-09-23T22:45:06.051Z,100.00
2022-09-23T22:47:37.938Z,100.00
2022-09-23T22:50:09.360Z,100.00
2022-09-23T22:52:37.130Z,100.00
2022-09-23T22:55:05.171Z,100.00
2022-09-23T22:57:32.239Z,100.00
2022-09-23T22:59:59.406Z,100.00
2022-09-23T23:02:26.558Z,100.00
2022-09-23T23:04:56.538Z,100.00
2022-09-23T23:07:23.633Z,100.00
2022-09-23T23:09:51.522Z,100.00
2022-09-23T23:12:20.619Z,100.00
2022-09-23T23:14:48.544Z,100.00
2022-09-23T23:17:15.948Z,100.00
2022-09-23T23:19:43.085Z,100.00
2022-09-23T23:22:10.296Z,100.00
2022-09-23T23:24:37.486Z,100.00
2022-09-23T23:27:04.718Z,100.00
2022-09-23T23:29:31.853Z,100.00
2022-09-23T23:31:58.937Z,100.00
2022-09-23T23:34:26.072Z,100.00
2022-09-23T23:36:55.370Z,100.00
2022-09-23T23:39:24.573Z,100.00
2022-09-23T23:41:56.608Z,100.00
2022-09-23T23:44:25.760Z,100.00
2022-09-23T23:46:54.262Z,100.00
2022-09-23T23:49:21.926Z,100.00
2022-09-23T23:51:49.312Z,100.00
2022-09-23T23:54:16.468Z,100.00
2022-09-23T23:56:44.067Z,100.00
2022-09-23T23:59:11.483Z,100.00
